Time;durP1;ratioP1;P1;durP2;ratioP2;P2;SDS_P1;SDS_P2;PMS_P1;PMS_P2;Temp;Humidity;BMP_temperature;BMP_pressure;BME280_temperature;BME280_humidity;BME280_pressure;Samples;Min_cycle;Max_cycle;Signal;HPM_P1;HPM_P2
2023/01/10 00:00:42;;;;;;;14.93;1.75;;;;;;;;;;6208766;23;20086;-43
2023/01/10 00:03:10;;;;;;;13.45;1.23;;;;;;;;;;6209853;23;20095;-43
2023/01/10 00:05:39;;;;;;;16.13;1.83;;;;;;;;;;6213236;23;20073;-43
2023/01/10 00:08:07;;;;;;;15.88;1.77;;;;;;;;;;6214614;23;20070;-42
2023/01/10 00:10:35;;;;;;;18.33;3.03;;;;;;;;;;6212852;23;20012;-42
2023/01/10 00:15:50;;;;;;;14.70;1.42;;;;;;;;;;6210112;23;20420;-43
2023/01/10 00:18:18;;;;;;;24.67;2.23;;;;;;;;;;6207459;23;20012;-43
2023/01/10 00:20:46;;;;;;;12.10;1.50;;;;;;;;;;6214079;23;20058;-43
2023/01/10 00:23:14;;;;;;;14.48;1.67;;;;;;;;;;6209930;23;20043;-43
2023/01/10 00:25:41;;;;;;;14.65;2.15;;;;;;;;;;6208607;23;20099;-42
2023/01/10 00:28:18;;;;;;;16.92;1.52;;;;;;;;;;6222031;23;20055;-42
2023/01/10 00:30:58;;;;;;;11.03;1.23;;;;;;;;;;6210037;23;20047;-43
2023/01/10 00:33:26;;;;;;;12.52;0.70;;;;;;;;;;6210944;23;20826;-44
2023/01/10 00:35:55;;;;;;;17.45;1.50;;;;;;;;;;6215379;22;20020;-42
2023/01/10 00:38:22;;;;;;;13.82;0.73;;;;;;;;;;6207133;23;20339;-42
2023/01/10 00:40:50;;;;;;;10.60;1.35;;;;;;;;;;6216380;23;20032;-42
2023/01/10 00:46:09;;;;;;;14.95;1.40;;;;;;;;;;6216507;23;20012;-43
2023/01/10 00:48:37;;;;;;;17.08;0.93;;;;;;;;;;6216397;23;20100;-42
2023/01/10 00:51:04;;;;;;;13.32;1.38;;;;;;;;;;6205538;23;20086;-43
2023/01/10 00:53:32;;;;;;;12.45;1.38;;;;;;;;;;6220798;23;20020;-42
2023/01/10 00:56:00;;;;;;;11.17;0.90;;;;;;;;;;6209495;23;20040;-42
2023/01/10 00:58:29;;;;;;;11.57;1.00;;;;;;;;;;6216522;23;20517;-45
2023/01/10 01:00:56;;;;;;;14.40;1.08;;;;;;;;;;6214388;23;20390;-45
2023/01/10 01:03:24;;;;;;;12.63;1.17;;;;;;;;;;6221930;23;20012;-42
2023/01/10 01:05:52;;;;;;;14.88;1.75;;;;;;;;;;6210379;23;20134;-42
2023/01/10 01:08:20;;;;;;;14.83;1.07;;;;;;;;;;6221938;23;20020;-42
2023/01/10 01:10:50;;;;;;;15.38;1.30;;;;;;;;;;6208561;23;20500;-43
2023/01/10 01:13:19;;;;;;;15.27;1.08;;;;;;;;;;6213216;23;20058;-42
2023/01/10 01:15:48;;;;;;;18.88;1.50;;;;;;;;;;6214196;23;20012;-42
2023/01/10 01:18:17;;;;;;;14.32;1.63;;;;;;;;;;6216937;23;20074;-44
2023/01/10 01:20:45;;;;;;;13.03;1.93;;;;;;;;;;6213871;23;20069;-43
2023/01/10 01:23:13;;;;;;;13.25;1.60;;;;;;;;;;6213758;23;20074;-42
2023/01/10 01:25:41;;;;;;;11.02;0.82;;;;;;;;;;6210660;23;20096;-42
2023/01/10 01:28:09;;;;;;;11.07;0.73;;;;;;;;;;6219159;23;20095;-42
2023/01/10 01:30:37;;;;;;;13.43;0.93;;;;;;;;;;6202224;22;20047;-42
2023/01/10 01:33:06;;;;;;;16.23;1.40;;;;;;;;;;6219866;23;20411;-42
2023/01/10 01:35:34;;;;;;;12.65;1.08;;;;;;;;;;6208133;23;20031;-43
2023/01/10 01:38:01;;;;;;;9.27;0.88;;;;;;;;;;6217341;23;20181;-46
2023/01/10 01:40:31;;;;;;;15.95;2.60;;;;;;;;;;6213467;23;20047;-42
2023/01/10 01:43:00;;;;;;;18.55;0.80;;;;;;;;;;6216003;23;20016;-43
2023/01/10 01:45:36;;;;;;;12.27;1.30;;;;;;;;;;6215309;23;20459;-43
2023/01/10 01:48:08;;;;;;;15.32;1.63;;;;;;;;;;6207290;23;20420;-44
2023/01/10 01:50:38;;;;;;;12.48;0.95;;;;;;;;;;6216467;23;20016;-43
2023/01/10 01:53:09;;;;;;;11.27;1.42;;;;;;;;;;6209555;23;20094;-42
2023/01/10 01:55:38;;;;;;;12.27;1.55;;;;;;;;;;6214997;23;20066;-42
2023/01/10 01:58:08;;;;;;;12.10;0.90;;;;;;;;;;6203751;23;20040;-42
2023/01/10 02:00:36;;;;;;;14.32;1.10;;;;;;;;;;6214308;23;20027;-44
2023/01/10 02:03:08;;;;;;;17.35;1.50;;;;;;;;;;6215730;23;20745;-44
2023/01/10 02:05:37;;;;;;;10.93;1.55;;;;;;;;;;6213652;23;20027;-43
2023/01/10 02:08:05;;;;;;;19.35;1.10;;;;;;;;;;6215016;23;20087;-44
2023/01/10 02:10:36;;;;;;;12.20;1.33;;;;;;;;;;6213746;23;20040;-42
2023/01/10 02:13:05;;;;;;;9.23;1.23;;;;;;;;;;6211486;23;20024;-43
2023/01/10 02:15:37;;;;;;;11.48;1.98;;;;;;;;;;6211761;23;20050;-44
2023/01/10 02:18:08;;;;;;;15.52;0.95;;;;;;;;;;6205498;23;20087;-44
2023/01/10 02:20:42;;;;;;;9.77;0.90;;;;;;;;;;6212452;23;20091;-42
2023/01/10 02:23:25;;;;;;;9.33;0.73;;;;;;;;;;6205101;23;20046;-42
2023/01/10 02:26:05;;;;;;;7.57;0.95;;;;;;;;;;6207878;22;20054;-42
2023/01/10 02:28:44;;;;;;;12.35;1.52;;;;;;;;;;6224482;23;20070;-43
2023/01/10 02:31:19;;;;;;;16.20;2.10;;;;;;;;;;6202816;23;20012;-43
2023/01/10 02:33:50;;;;;;;16.67;1.23;;;;;;;;;;6219001;23;20106;-42
2023/01/10 02:36:27;;;;;;;17.17;1.50;;;;;;;;;;6210311;23;20062;-43
2023/01/10 02:38:58;;;;;;;9.43;0.82;;;;;;;;;;6217837;23;20016;-42
2023/01/10 02:41:32;;;;;;;10.88;1.10;;;;;;;;;;6211582;23;20012;-44
2023/01/10 02:44:03;;;;;;;12.68;0.90;;;;;;;;;;6212282;23;20024;-43
2023/01/10 02:46:31;;;;;;;12.93;1.05;;;;;;;;;;6220710;23;20042;-42
2023/01/10 02:49:00;;;;;;;14.43;0.83;;;;;;;;;;6207005;23;20016;-42
2023/01/10 02:51:29;;;;;;;14.23;1.83;;;;;;;;;;6218912;23;20022;-43
2023/01/10 02:53:59;;;;;;;12.55;0.85;;;;;;;;;;6209836;23;20016;-43
2023/01/10 02:56:48;;;;;;;13.02;1.60;;;;;;;;;;6211585;23;20446;-43
2023/01/10 02:59:23;;;;;;;10.50;1.35;;;;;;;;;;6224550;23;20047;-42
2023/01/10 03:01:55;;;;;;;13.83;1.10;;;;;;;;;;6221087;23;20020;-44
2023/01/10 03:04:29;;;;;;;11.63;1.38;;;;;;;;;;6197210;23;20012;-42
2023/01/10 03:07:01;;;;;;;10.20;1.13;;;;;;;;;;6218123;23;20015;-42
2023/01/10 03:09:31;;;;;;;19.90;1.23;;;;;;;;;;6219051;23;20074;-42
2023/01/10 03:12:04;;;;;;;12.57;1.67;;;;;;;;;;6213328;23;20036;-43
2023/01/10 03:14:33;;;;;;;13.93;1.00;;;;;;;;;;6216815;23;20424;-42
2023/01/10 03:17:02;;;;;;;13.60;1.05;;;;;;;;;;6224697;23;20036;-42
2023/01/10 03:19:35;;;;;;;14.52;1.40;;;;;;;;;;6173918;23;20098;-42
2023/01/10 03:22:03;;;;;;;7.53;0.93;;;;;;;;;;6217665;23;20489;-42
2023/01/10 03:24:32;;;;;;;10.40;1.00;;;;;;;;;;6213402;23;20505;-42
2023/01/10 03:27:03;;;;;;;9.83;1.00;;;;;;;;;;6211103;23;20436;-42
2023/01/10 03:29:34;;;;;;;12.48;1.27;;;;;;;;;;6218609;23;20115;-42
2023/01/10 03:32:04;;;;;;;10.70;1.20;;;;;;;;;;6212207;23;20024;-45
2023/01/10 03:34:34;;;;;;;11.85;0.93;;;;;;;;;;6215709;23;20772;-44
2023/01/10 03:37:04;;;;;;;11.05;1.10;;;;;;;;;;6207107;23;20303;-42
2023/01/10 03:39:34;;;;;;;6.83;0.83;;;;;;;;;;6211264;23;20522;-44
2023/01/10 03:42:05;;;;;;;11.98;0.85;;;;;;;;;;6203914;23;20043;-42
2023/01/10 03:44:43;;;;;;;8.95;1.40;;;;;;;;;;6213829;23;20031;-42
2023/01/10 03:47:13;;;;;;;12.05;0.88;;;;;;;;;;6224305;23;20099;-42
2023/01/10 03:49:44;;;;;;;9.93;1.80;;;;;;;;;;6201786;23;20199;-41
2023/01/10 03:52:14;;;;;;;18.27;1.10;;;;;;;;;;6217365;23;20040;-43
2023/01/10 03:54:42;;;;;;;14.23;1.33;;;;;;;;;;6211842;23;20077;-42
2023/01/10 03:57:15;;;;;;;11.95;1.02;;;;;;;;;;6218300;23;20046;-41
2023/01/10 03:59:43;;;;;;;18.10;1.35;;;;;;;;;;6209728;23;20074;-41
2023/01/10 04:02:10;;;;;;;7.75;0.90;;;;;;;;;;6222135;23;20012;-41
2023/01/10 04:04:38;;;;;;;8.93;1.07;;;;;;;;;;6202402;23;20105;-41
2023/01/10 04:07:07;;;;;;;13.88;1.17;;;;;;;;;;6225808;23;20429;-41
2023/01/10 04:09:35;;;;;;;8.68;1.10;;;;;;;;;;6182420;23;20316;-43
2023/01/10 04:12:02;;;;;;;18.80;1.40;;;;;;;;;;6211352;23;20044;-42
2023/01/10 04:14:31;;;;;;;15.73;1.15;;;;;;;;;;6209664;23;20016;-42
2023/01/10 04:16:59;;;;;;;14.00;1.07;;;;;;;;;;6217313;23;20017;-42
2023/01/10 04:19:26;;;;;;;14.13;1.10;;;;;;;;;;6214248;23;20016;-42
2023/01/10 04:21:55;;;;;;;9.80;1.25;;;;;;;;;;6223017;23;20040;-42
2023/01/10 04:24:24;;;;;;;15.63;1.35;;;;;;;;;;6204045;23;20036;-43
2023/01/10 04:26:53;;;;;;;10.07;0.90;;;;;;;;;;6222459;23;20042;-43
2023/01/10 04:29:22;;;;;;;17.40;1.53;;;;;;;;;;6217111;23;20016;-41
2023/01/10 04:31:49;;;;;;;9.65;0.90;;;;;;;;;;6212426;23;20371;-43
2023/01/10 04:34:19;;;;;;;12.45;1.52;;;;;;;;;;6199638;23;20489;-42
2023/01/10 04:36:47;;;;;;;13.40;0.98;;;;;;;;;;6222694;23;20324;-43
2023/01/10 04:39:17;;;;;;;10.85;1.10;;;;;;;;;;6198124;23;20054;-42
2023/01/10 04:41:45;;;;;;;16.33;1.03;;;;;;;;;;6217270;23;20087;-43
2023/01/10 04:44:17;;;;;;;13.55;1.02;;;;;;;;;;6193727;23;20015;-43
2023/01/10 04:46:45;;;;;;;16.48;1.15;;;;;;;;;;6219329;23;20058;-44
2023/01/10 04:49:13;;;;;;;12.85;1.25;;;;;;;;;;6215250;23;20028;-42
2023/01/10 04:51:41;;;;;;;11.38;1.63;;;;;;;;;;6214637;23;20027;-43
2023/01/10 04:54:08;;;;;;;13.53;1.60;;;;;;;;;;6217874;23;20016;-41
2023/01/10 04:56:36;;;;;;;14.88;1.17;;;;;;;;;;6203465;23;20046;-42
2023/01/10 04:59:06;;;;;;;14.65;1.15;;;;;;;;;;6219515;23;20039;-42
2023/01/10 05:01:36;;;;;;;16.05;0.93;;;;;;;;;;6213718;23;20044;-42
2023/01/10 05:04:04;;;;;;;16.42;1.38;;;;;;;;;;6203853;23;20525;-41
2023/01/10 05:06:32;;;;;;;11.43;1.10;;;;;;;;;;6214078;23;20030;-42
2023/01/10 05:09:00;;;;;;;13.63;1.70;;;;;;;;;;6221622;23;20012;-43
2023/01/10 05:11:28;;;;;;;18.58;1.75;;;;;;;;;;6206884;23;20790;-44
2023/01/10 05:13:56;;;;;;;11.43;1.30;;;;;;;;;;6222371;23;20016;-42
2023/01/10 05:16:29;;;;;;;16.25;1.42;;;;;;;;;;6210762;22;20356;-42
2023/01/10 05:18:57;;;;;;;15.80;2.00;;;;;;;;;;6212051;23;20039;-41
2023/01/10 05:21:24;;;;;;;16.30;1.52;;;;;;;;;;6217727;23;20059;-42
2023/01/10 05:23:52;;;;;;;11.77;0.90;;;;;;;;;;6206449;23;20038;-42
2023/01/10 05:26:21;;;;;;;24.20;1.05;;;;;;;;;;6218285;23;20047;-41
2023/01/10 05:28:49;;;;;;;15.45;1.27;;;;;;;;;;6213799;23;20020;-42
2023/01/10 05:31:18;;;;;;;12.10;0.80;;;;;;;;;;6219763;23;20039;-41
2023/01/10 05:33:48;;;;;;;20.50;1.83;;;;;;;;;;6217173;23;20024;-42
2023/01/10 05:36:16;;;;;;;15.82;1.33;;;;;;;;;;6222719;23;20111;-42
2023/01/10 05:38:44;;;;;;;9.38;0.90;;;;;;;;;;6205637;23;20012;-42
2023/01/10 05:41:12;;;;;;;16.65;0.93;;;;;;;;;;6216070;23;20051;-41
2023/01/10 05:43:40;;;;;;;9.93;1.50;;;;;;;;;;6213311;23;20016;-42
2023/01/10 05:46:07;;;;;;;18.55;1.45;;;;;;;;;;6213999;23;20095;-42
2023/01/10 05:48:35;;;;;;;11.55;0.85;;;;;;;;;;6206178;23;20132;-42
2023/01/10 05:51:05;;;;;;;13.57;0.65;;;;;;;;;;6221872;23;20168;-42
2023/01/10 05:53:36;;;;;;;15.50;1.10;;;;;;;;;;6220044;22;20016;-42
2023/01/10 05:56:06;;;;;;;13.17;1.20;;;;;;;;;;6210509;23;20048;-41
2023/01/10 05:58:34;;;;;;;17.75;1.13;;;;;;;;;;6214712;23;20470;-42
2023/01/10 06:01:01;;;;;;;16.58;1.30;;;;;;;;;;6210029;23;20043;-42
2023/01/10 06:03:30;;;;;;;19.98;1.13;;;;;;;;;;6214081;23;20070;-42
2023/01/10 06:05:58;;;;;;;17.13;1.40;;;;;;;;;;6209797;22;20639;-43
2023/01/10 06:08:27;;;;;;;16.00;1.47;;;;;;;;;;6224145;23;20015;-41
2023/01/10 06:10:55;;;;;;;10.38;1.02;;;;;;;;;;6205518;22;20012;-43
2023/01/10 06:13:23;;;;;;;18.30;1.38;;;;;;;;;;6218710;23;20053;-43
2023/01/10 06:15:51;;;;;;;19.23;1.70;;;;;;;;;;6210574;23;20593;-42
2023/01/10 06:18:19;;;;;;;10.73;1.00;;;;;;;;;;6216997;23;20022;-43
2023/01/10 06:20:46;;;;;;;11.17;1.10;;;;;;;;;;6212955;23;20485;-43
2023/01/10 06:23:14;;;;;;;15.07;1.23;;;;;;;;;;6214795;23;20369;-42
2023/01/10 06:25:43;;;;;;;11.52;1.27;;;;;;;;;;6215727;23;20039;-42
2023/01/10 06:28:12;;;;;;;19.50;1.50;;;;;;;;;;6212952;23;20039;-43
2023/01/10 06:30:42;;;;;;;16.25;1.13;;;;;;;;;;6218132;23;20074;-43
2023/01/10 06:33:12;;;;;;;19.53;1.33;;;;;;;;;;6215966;23;20016;-41
2023/01/10 06:35:39;;;;;;;13.55;1.45;;;;;;;;;;6206905;23;20027;-44
2023/01/10 06:38:07;;;;;;;11.40;0.60;;;;;;;;;;6221547;23;20066;-44
2023/01/10 06:40:35;;;;;;;15.20;0.75;;;;;;;;;;6209520;23;20020;-42
2023/01/10 06:43:04;;;;;;;13.55;0.88;;;;;;;;;;6223589;23;20012;-41
2023/01/10 06:45:32;;;;;;;12.17;1.43;;;;;;;;;;6203742;23;20082;-42
2023/01/10 06:48:00;;;;;;;12.68;0.88;;;;;;;;;;6212673;23;20111;-42
2023/01/10 06:50:28;;;;;;;11.02;1.60;;;;;;;;;;6211948;23;20426;-42
2023/01/10 06:52:57;;;;;;;13.23;1.20;;;;;;;;;;6223821;23;20051;-45
2023/01/10 06:55:28;;;;;;;12.68;1.30;;;;;;;;;;6217114;23;20477;-43
2023/01/10 06:57:56;;;;;;;11.50;0.83;;;;;;;;;;6154009;23;1321863;-45
2023/01/10 07:00:26;;;;;;;12.77;0.68;;;;;;;;;;6214520;23;20016;-47
2023/01/10 07:02:55;;;;;;;16.55;1.20;;;;;;;;;;6213409;23;20016;-43
2023/01/10 07:05:23;;;;;;;15.50;0.95;;;;;;;;;;6218638;23;20066;-43
2023/01/10 07:07:50;;;;;;;20.90;1.00;;;;;;;;;;6206303;23;20438;-42
2023/01/10 07:10:18;;;;;;;12.47;1.47;;;;;;;;;;6219333;23;20035;-43
2023/01/10 07:12:46;;;;;;;10.85;1.08;;;;;;;;;;6219603;23;20047;-44
2023/01/10 07:15:13;;;;;;;9.95;0.77;;;;;;;;;;6217063;23;20062;-42
2023/01/10 07:17:44;;;;;;;11.30;0.90;;;;;;;;;;6208839;23;20031;-46
2023/01/10 07:20:12;;;;;;;7.07;0.70;;;;;;;;;;6216927;23;20012;-42
2023/01/10 07:22:40;;;;;;;9.73;0.80;;;;;;;;;;6208385;23;20052;-44
2023/01/10 07:25:08;;;;;;;10.27;0.95;;;;;;;;;;6210730;23;20036;-44
2023/01/10 07:27:35;;;;;;;8.38;0.70;;;;;;;;;;6212876;23;20035;-47
2023/01/10 07:30:05;;;;;;;8.57;0.60;;;;;;;;;;6217166;23;20022;-43
2023/01/10 07:32:33;;;;;;;6.47;0.57;;;;;;;;;;6220877;23;20020;-47
2023/01/10 07:35:03;;;;;;;11.80;0.90;;;;;;;;;;6212734;23;20066;-43
2023/01/10 07:37:30;;;;;;;4.28;0.30;;;;;;;;;;6218847;22;20036;-42
2023/01/10 07:39:58;;;;;;;9.63;0.60;;;;;;;;;;6212651;23;20050;-42
2023/01/10 07:42:26;;;;;;;4.65;0.60;;;;;;;;;;6219533;23;20012;-42
2023/01/10 07:44:56;;;;;;;5.00;0.40;;;;;;;;;;6216295;23;20041;-42
2023/01/10 07:47:24;;;;;;;4.77;0.40;;;;;;;;;;6218380;23;20016;-44
2023/01/10 07:49:52;;;;;;;4.82;0.45;;;;;;;;;;6201386;23;20932;-42
2023/01/10 07:52:21;;;;;;;6.32;0.50;;;;;;;;;;6220564;23;20044;-42
2023/01/10 07:54:49;;;;;;;7.53;0.60;;;;;;;;;;6200697;23;20446;-41
2023/01/10 07:57:17;;;;;;;3.53;0.47;;;;;;;;;;6218172;22;20576;-42
2023/01/10 07:59:45;;;;;;;4.40;0.60;;;;;;;;;;6213134;23;20012;-44
2023/01/10 08:02:12;;;;;;;4.35;0.40;;;;;;;;;;6219122;23;20066;-42
2023/01/10 08:04:40;;;;;;;6.45;0.50;;;;;;;;;;6204415;23;20047;-42
2023/01/10 08:07:07;;;;;;;6.35;0.50;;;;;;;;;;6217487;22;20070;-42
2023/01/10 08:09:36;;;;;;;3.20;0.50;;;;;;;;;;6210216;23;20526;-43
2023/01/10 08:12:04;;;;;;;3.03;0.30;;;;;;;;;;6216645;23;20008;-41
2023/01/10 08:14:32;;;;;;;5.45;0.75;;;;;;;;;;6214521;23;20046;-41
2023/01/10 08:17:00;;;;;;;2.72;0.30;;;;;;;;;;6218053;23;20106;-43
2023/01/10 08:19:28;;;;;;;2.85;0.30;;;;;;;;;;6216779;22;20016;-43
2023/01/10 08:21:56;;;;;;;3.25;0.50;;;;;;;;;;6203584;23;20074;-42
2023/01/10 08:24:25;;;;;;;4.33;0.63;;;;;;;;;;6215820;23;20022;-42
2023/01/10 08:26:57;;;;;;;5.28;0.40;;;;;;;;;;6208639;23;20603;-43
2023/01/10 08:29:25;;;;;;;3.78;0.40;;;;;;;;;;6214462;23;20694;-43
2023/01/10 08:31:52;;;;;;;3.88;0.40;;;;;;;;;;6212834;23;20012;-43
2023/01/10 08:34:20;;;;;;;2.28;0.30;;;;;;;;;;6213761;23;20016;-43
2023/01/10 08:36:49;;;;;;;5.50;0.60;;;;;;;;;;6216740;23;20334;-42
2023/01/10 08:39:17;;;;;;;5.40;0.50;;;;;;;;;;6213010;23;20026;-43
2023/01/10 08:41:44;;;;;;;2.72;0.30;;;;;;;;;;6209909;23;20335;-41
2023/01/10 08:44:14;;;;;;;4.18;0.50;;;;;;;;;;6212230;23;20023;-41
2023/01/10 08:46:47;;;;;;;2.55;0.50;;;;;;;;;;6204832;23;20377;-43
2023/01/10 08:49:15;;;;;;;2.20;0.27;;;;;;;;;;6220940;23;20438;-45
2023/01/10 08:51:43;;;;;;;1.65;0.20;;;;;;;;;;6214937;23;20016;-42
2023/01/10 08:54:11;;;;;;;2.72;0.30;;;;;;;;;;6218168;23;20016;-43
2023/01/10 08:56:39;;;;;;;1.88;0.30;;;;;;;;;;6209848;23;20016;-42
2023/01/10 08:59:07;;;;;;;2.05;0.30;;;;;;;;;;6218850;23;20099;-44
2023/01/10 09:01:36;;;;;;;2.87;0.30;;;;;;;;;;6206956;23;20078;-43
2023/01/10 09:04:04;;;;;;;3.47;0.20;;;;;;;;;;6197730;23;20020;-43
2023/01/10 09:06:33;;;;;;;2.45;0.20;;;;;;;;;;6190469;23;20012;-43
2023/01/10 09:09:01;;;;;;;2.05;0.20;;;;;;;;;;6214954;23;20047;-43
2023/01/10 09:11:29;;;;;;;2.55;0.40;;;;;;;;;;6192618;23;20430;-42
2023/01/10 09:13:59;;;;;;;2.30;0.23;;;;;;;;;;6214121;23;20525;-41
2023/01/10 09:16:28;;;;;;;4.25;0.30;;;;;;;;;;6211033;23;20764;-42
2023/01/10 09:18:57;;;;;;;2.20;0.30;;;;;;;;;;6212205;23;20051;-45
2023/01/10 09:21:24;;;;;;;1.98;0.28;;;;;;;;;;6202275;23;20050;-42
2023/01/10 09:23:53;;;;;;;1.63;0.20;;;;;;;;;;6201469;23;20571;-43
2023/01/10 09:26:21;;;;;;;4.67;0.30;;;;;;;;;;6188987;23;20348;-41
2023/01/10 09:28:49;;;;;;;1.92;0.20;;;;;;;;;;6208028;23;20530;-41
2023/01/10 09:31:17;;;;;;;2.25;0.20;;;;;;;;;;6195933;23;20016;-42
2023/01/10 09:33:45;;;;;;;2.17;0.30;;;;;;;;;;6195725;23;20074;-41
2023/01/10 09:36:15;;;;;;;2.30;0.20;;;;;;;;;;6195096;23;20067;-42
2023/01/10 09:38:44;;;;;;;1.37;0.20;;;;;;;;;;6207788;23;20111;-43
2023/01/10 09:41:18;;;;;;;2.30;0.30;;;;;;;;;;6198913;23;20519;-41
2023/01/10 09:43:50;;;;;;;2.35;0.40;;;;;;;;;;6192721;23;20047;-42
2023/01/10 09:46:22;;;;;;;2.78;0.30;;;;;;;;;;6202235;23;20024;-45
2023/01/10 09:48:55;;;;;;;1.98;0.30;;;;;;;;;;6194710;23;20721;-44
2023/01/10 09:51:29;;;;;;;3.93;0.40;;;;;;;;;;6200183;23;20039;-42
2023/01/10 09:53:59;;;;;;;2.15;0.38;;;;;;;;;;6210742;23;20044;-41
2023/01/10 09:56:39;;;;;;;2.30;0.38;;;;;;;;;;6203366;23;20445;-42
2023/01/10 09:59:11;;;;;;;2.92;0.30;;;;;;;;;;6221853;23;20157;-44
2023/01/10 10:01:39;;;;;;;2.33;0.20;;;;;;;;;;6207915;23;20043;-42
2023/01/10 10:04:15;;;;;;;1.60;0.20;;;;;;;;;;6215438;23;20020;-42
2023/01/10 10:06:45;;;;;;;1.75;0.20;;;;;;;;;;6211514;23;20098;-42
2023/01/10 10:09:17;;;;;;;3.13;0.20;;;;;;;;;;6212169;23;20414;-41
2023/01/10 10:11:54;;;;;;;2.25;0.40;;;;;;;;;;6213148;23;20672;-41
2023/01/10 10:14:28;;;;;;;1.83;0.20;;;;;;;;;;6214652;23;20016;-44
2023/01/10 10:17:04;;;;;;;1.57;0.20;;;;;;;;;;6221694;23;20048;-41
2023/01/10 10:19:43;;;;;;;2.85;0.40;;;;;;;;;;6220758;23;20032;-42
2023/01/10 10:22:16;;;;;;;1.42;0.20;;;;;;;;;;6222119;23;20040;-42
2023/01/10 10:24:51;;;;;;;2.05;0.30;;;;;;;;;;6206601;23;20062;-42
2023/01/10 10:27:22;;;;;;;2.10;0.40;;;;;;;;;;6216968;23;20364;-43
2023/01/10 10:30:04;;;;;;;3.23;0.23;;;;;;;;;;6199720;22;20036;-44
2023/01/10 10:32:42;;;;;;;3.53;0.40;;;;;;;;;;6214910;23;20019;-42
2023/01/10 10:35:17;;;;;;;3.80;0.50;;;;;;;;;;6211857;23;20016;-45
2023/01/10 10:37:48;;;;;;;4.05;0.50;;;;;;;;;;6221235;22;20477;-43
2023/01/10 10:40:17;;;;;;;2.97;0.40;;;;;;;;;;6206950;23;20016;-43
2023/01/10 10:42:49;;;;;;;4.90;0.67;;;;;;;;;;6219693;22;20478;-42
2023/01/10 10:45:19;;;;;;;5.40;1.10;;;;;;;;;;6211515;23;20066;-43
2023/01/10 10:47:52;;;;;;;7.22;0.93;;;;;;;;;;6219605;23;20042;-42
2023/01/10 10:50:24;;;;;;;4.18;0.77;;;;;;;;;;6200597;23;20611;-41
2023/01/10 10:52:53;;;;;;;4.07;0.47;;;;;;;;;;6222681;23;20012;-43
2023/01/10 10:55:27;;;;;;;5.20;0.43;;;;;;;;;;6211353;23;20249;-43
2023/01/10 10:57:56;;;;;;;7.00;0.55;;;;;;;;;;6216973;23;20509;-44
2023/01/10 11:00:28;;;;;;;4.03;0.80;;;;;;;;;;6208611;23;20022;-42
2023/01/10 11:02:58;;;;;;;5.43;0.52;;;;;;;;;;6219371;23;20462;-41
2023/01/10 11:05:29;;;;;;;4.20;0.40;;;;;;;;;;6213571;23;20411;-42
2023/01/10 11:08:00;;;;;;;2.67;0.47;;;;;;;;;;6212321;23;20148;-43
2023/01/10 11:10:37;;;;;;;4.25;0.40;;;;;;;;;;6223332;23;20015;-42
2023/01/10 11:13:06;;;;;;;4.97;0.45;;;;;;;;;;6214718;23;20390;-42
2023/01/10 11:15:35;;;;;;;6.78;0.50;;;;;;;;;;6211839;23;20012;-42
2023/01/10 11:18:04;;;;;;;4.80;0.60;;;;;;;;;;6222198;23;20020;-42
2023/01/10 11:20:33;;;;;;;5.30;0.80;;;;;;;;;;6217281;23;20095;-43
2023/01/10 11:23:03;;;;;;;9.00;0.70;;;;;;;;;;6209129;23;20415;-43
2023/01/10 11:25:30;;;;;;;7.45;0.47;;;;;;;;;;6210057;23;20066;-44
2023/01/10 11:27:59;;;;;;;6.65;0.75;;;;;;;;;;6213221;23;20082;-42
2023/01/10 11:30:29;;;;;;;6.88;0.73;;;;;;;;;;6215959;23;20020;-42
2023/01/10 11:32:57;;;;;;;5.37;1.00;;;;;;;;;;6217250;23;20016;-42
2023/01/10 11:35:25;;;;;;;9.45;1.17;;;;;;;;;;6215406;23;20051;-44
2023/01/10 11:38:01;;;;;;;5.28;0.95;;;;;;;;;;6216405;23;20042;-43
2023/01/10 11:40:31;;;;;;;7.28;0.80;;;;;;;;;;6208252;22;20035;-41
2023/01/10 11:42:59;;;;;;;5.15;0.60;;;;;;;;;;6222090;23;20084;-43
2023/01/10 11:45:30;;;;;;;9.40;1.10;;;;;;;;;;6187207;23;20062;-43
2023/01/10 11:48:02;;;;;;;5.25;0.70;;;;;;;;;;6212455;23;20083;-46
2023/01/10 11:50:32;;;;;;;7.45;0.80;;;;;;;;;;6210823;23;20356;-43
2023/01/10 11:53:05;;;;;;;6.40;0.55;;;;;;;;;;6217209;23;20807;-42
2023/01/10 11:55:36;;;;;;;9.25;0.95;;;;;;;;;;6216850;23;20090;-44
2023/01/10 11:58:05;;;;;;;7.27;0.80;;;;;;;;;;6207467;23;20256;-42
2023/01/10 12:00:34;;;;;;;6.72;0.88;;;;;;;;;;6216336;23;20087;-41
2023/01/10 12:03:03;;;;;;;7.70;0.85;;;;;;;;;;6205372;23;20657;-45
2023/01/10 12:05:31;;;;;;;14.00;1.02;;;;;;;;;;6216359;23;20012;-43
2023/01/10 12:08:00;;;;;;;5.50;0.77;;;;;;;;;;6214341;23;20020;-42
2023/01/10 12:10:29;;;;;;;7.97;0.70;;;;;;;;;;6221191;23;20019;-43
2023/01/10 12:12:59;;;;;;;10.45;0.90;;;;;;;;;;6216990;23;20024;-44
2023/01/10 12:15:28;;;;;;;7.53;0.77;;;;;;;;;;6216840;23;20395;-44
2023/01/10 12:18:06;;;;;;;9.70;0.73;;;;;;;;;;6219846;22;20372;-42
2023/01/10 12:20:36;;;;;;;9.75;1.02;;;;;;;;;;6216634;23;20406;-42
2023/01/10 12:23:06;;;;;;;11.70;1.20;;;;;;;;;;6209162;23;20051;-42
2023/01/10 12:25:36;;;;;;;9.52;1.23;;;;;;;;;;6213885;23;20110;-42
2023/01/10 12:28:13;;;;;;;7.80;0.68;;;;;;;;;;6217699;23;20047;-42
2023/01/10 12:30:43;;;;;;;9.75;0.85;;;;;;;;;;6219898;23;20031;-42
2023/01/10 12:33:12;;;;;;;6.65;0.70;;;;;;;;;;6213154;23;20107;-43
2023/01/10 12:35:42;;;;;;;14.50;1.27;;;;;;;;;;6213024;23;20023;-43
2023/01/10 12:38:18;;;;;;;10.35;1.38;;;;;;;;;;6210368;23;20090;-42
2023/01/10 12:40:50;;;;;;;12.32;1.30;;;;;;;;;;6211520;23;20075;-43
2023/01/10 12:46:19;;;;;;;13.80;1.52;;;;;;;;;;6215607;22;20401;-42
2023/01/10 12:49:16;;;;;;;10.03;1.57;;;;;;;;;;6218355;23;20020;-45
2023/01/10 12:51:45;;;;;;;8.95;1.02;;;;;;;;;;6208291;23;20315;-42
2023/01/10 12:54:16;;;;;;;17.00;3.17;;;;;;;;;;6218963;23;20012;-44
2023/01/10 12:56:43;;;;;;;17.98;2.25;;;;;;;;;;6206706;23;20024;-44
2023/01/10 12:59:19;;;;;;;8.18;1.50;;;;;;;;;;6215670;23;20047;-46
2023/01/10 13:02:05;;;;;;;17.43;2.20;;;;;;;;;;6200898;23;20016;-44
2023/01/10 13:04:34;;;;;;;15.45;1.70;;;;;;;;;;6206202;23;20451;-43
2023/01/10 13:07:02;;;;;;;17.35;2.30;;;;;;;;;;6212462;23;20012;-43
2023/01/10 13:09:30;;;;;;;18.73;2.45;;;;;;;;;;6209519;23;20019;-42
2023/01/10 13:12:01;;;;;;;17.15;2.42;;;;;;;;;;6215497;23;20027;-43
2023/01/10 13:14:31;;;;;;;20.03;1.90;;;;;;;;;;6209150;23;20064;-42
2023/01/10 13:17:03;;;;;;;19.52;2.75;;;;;;;;;;6217898;23;20389;-42
2023/01/10 13:19:31;;;;;;;18.15;2.83;;;;;;;;;;6216160;23;20027;-42
2023/01/10 13:22:12;;;;;;;17.10;2.42;;;;;;;;;;6215653;23;20095;-42
2023/01/10 13:24:40;;;;;;;16.98;2.63;;;;;;;;;;6204996;23;20116;-42
2023/01/10 13:27:22;;;;;;;16.30;1.80;;;;;;;;;;6217125;23;20518;-44
2023/01/10 13:29:51;;;;;;;11.68;2.35;;;;;;;;;;6207608;23;20016;-44
2023/01/10 13:32:21;;;;;;;18.25;2.67;;;;;;;;;;6200472;23;20106;-42
2023/01/10 13:34:49;;;;;;;24.30;2.58;;;;;;;;;;6214328;23;20016;-42
2023/01/10 13:37:21;;;;;;;23.10;2.83;;;;;;;;;;6209863;23;20012;-43
2023/01/10 13:39:52;;;;;;;15.03;1.87;;;;;;;;;;6212925;23;20016;-42
2023/01/10 13:45:19;;;;;;;14.77;1.80;;;;;;;;;;6204065;23;20160;-42
2023/01/10 13:47:57;;;;;;;15.00;2.10;;;;;;;;;;6213051;23;20311;-42
2023/01/10 13:50:45;;;;;;;16.38;2.28;;;;;;;;;;6200405;23;20015;-43
2023/01/10 13:53:37;;;;;;;14.47;1.67;;;;;;;;;;6210322;23;20047;-46
2023/01/10 13:56:04;;;;;;;13.02;2.40;;;;;;;;;;6202595;23;20095;-42
2023/01/10 14:04:20;;;;;;;10.90;1.30;;;;;;;;;;6211091;23;20455;-43
2023/01/10 14:06:52;;;;;;;12.40;1.60;;;;;;;;;;6215392;23;20177;-43
2023/01/10 14:09:35;;;;;;;12.65;1.33;;;;;;;;;;6205775;23;20016;-43
2023/01/10 14:12:04;;;;;;;17.00;2.30;;;;;;;;;;6207532;23;20020;-42
2023/01/10 14:14:33;;;;;;;14.35;1.77;;;;;;;;;;6210267;23;20068;-43
2023/01/10 14:17:12;;;;;;;23.25;2.63;;;;;;;;;;6209437;23;20648;-42
2023/01/10 14:19:41;;;;;;;14.93;1.77;;;;;;;;;;6215528;23;20012;-42
2023/01/10 14:22:23;;;;;;;13.85;2.13;;;;;;;;;;6214782;23;20016;-43
2023/01/10 14:24:52;;;;;;;14.30;1.30;;;;;;;;;;6212867;23;20587;-42
2023/01/10 14:27:20;;;;;;;11.15;1.35;;;;;;;;;;6215580;23;20052;-42
2023/01/10 14:29:49;;;;;;;11.85;1.55;;;;;;;;;;6218214;23;20398;-42
2023/01/10 14:32:24;;;;;;;28.83;1.97;;;;;;;;;;6211297;23;20046;-42
2023/01/10 14:34:52;;;;;;;20.58;2.05;;;;;;;;;;6213274;23;20052;-43
2023/01/10 14:37:24;;;;;;;15.90;1.45;;;;;;;;;;6212832;22;20482;-42
2023/01/10 14:39:54;;;;;;;18.38;2.50;;;;;;;;;;6216861;23;20054;-43
2023/01/10 14:42:22;;;;;;;15.90;1.85;;;;;;;;;;6215789;23;20071;-42
2023/01/10 14:44:55;;;;;;;17.93;1.73;;;;;;;;;;6217792;23;20086;-43
2023/01/10 14:47:28;;;;;;;16.48;2.00;;;;;;;;;;6216934;22;20500;-44
2023/01/10 14:49:57;;;;;;;8.77;1.30;;;;;;;;;;6197987;23;20490;-42
2023/01/10 14:52:25;;;;;;;14.27;1.80;;;;;;;;;;6220198;23;20016;-45
2023/01/10 14:55:03;;;;;;;17.92;1.90;;;;;;;;;;6210239;23;20082;-41
2023/01/10 14:57:31;;;;;;;14.63;1.93;;;;;;;;;;6215437;23;20027;-44
2023/01/10 15:00:03;;;;;;;12.35;1.58;;;;;;;;;;6207851;23;20057;-42
2023/01/10 15:02:32;;;;;;;13.10;1.98;;;;;;;;;;6215395;22;20469;-42
2023/01/10 15:05:06;;;;;;;13.98;2.03;;;;;;;;;;6188502;23;20062;-43
2023/01/10 15:07:33;;;;;;;11.55;1.88;;;;;;;;;;6216336;23;20013;-43
2023/01/10 15:10:04;;;;;;;19.70;2.03;;;;;;;;;;6215633;23;20012;-44